sensor_id;sensor_type;location;lat;lon;timestamp;pressure;altitude;pressure_sealevel;temperature;humidity
45071;BME280;30836;48.906;9.140;2023-04-15T00:00:27;976.52;;;15.07;38.62
45071;BME280;30836;48.906;9.140;2023-04-15T00:01:28;976.50;;;15.07;38.66
45071;BME280;30836;48.906;9.140;2023-04-15T00:02:28;976.50;;;15.06;38.76
45071;BME280;30836;48.906;9.140;2023-04-15T00:03:29;976.50;;;15.04;38.86
45071;BME280;30836;48.906;9.140;2023-04-15T00:04:29;976.48;;;15.01;38.82
45071;BME280;30836;48.906;9.140;2023-04-15T00:05:30;976.50;;;14.98;38.85
45071;BME280;30836;48.906;9.140;2023-04-15T00:06:30;976.50;;;14.95;38.91
45071;BME280;30836;48.906;9.140;2023-04-15T00:07:31;976.50;;;14.94;38.90
45071;BME280;30836;48.906;9.140;2023-04-15T00:08:31;976.50;;;14.92;38.91
45071;BME280;30836;48.906;9.140;2023-04-15T00:09:32;976.50;;;14.92;38.92
45071;BME280;30836;48.906;9.140;2023-04-15T00:10:32;976.48;;;14.92;38.94
45071;BME280;30836;48.906;9.140;2023-04-15T00:11:32;976.50;;;14.91;38.96
45071;BME280;30836;48.906;9.140;2023-04-15T00:12:33;976.50;;;14.89;39.05
45071;BME280;30836;48.906;9.140;2023-04-15T00:13:33;976.46;;;14.87;39.16
45071;BME280;30836;48.906;9.140;2023-04-15T00:14:34;976.46;;;14.84;39.15
45071;BME280;30836;48.906;9.140;2023-04-15T00:15:34;976.48;;;14.83;39.19
45071;BME280;30836;48.906;9.140;2023-04-15T00:16:35;976.48;;;14.81;39.22
45071;BME280;30836;48.906;9.140;2023-04-15T00:17:35;976.48;;;14.79;39.14
45071;BME280;30836;48.906;9.140;2023-04-15T00:18:36;976.48;;;14.78;39.23
45071;BME280;30836;48.906;9.140;2023-04-15T00:19:37;976.46;;;14.79;39.38
45071;BME280;30836;48.906;9.140;2023-04-15T00:20:37;976.48;;;14.80;39.55
45071;BME280;30836;48.906;9.140;2023-04-15T00:21:38;976.48;;;14.79;39.65
45071;BME280;30836;48.906;9.140;2023-04-15T00:22:38;976.46;;;14.74;39.75
45071;BME280;30836;48.906;9.140;2023-04-15T00:23:39;976.46;;;14.69;39.80
45071;BME280;30836;48.906;9.140;2023-04-15T00:24:39;976.46;;;14.62;40.07
45071;BME280;30836;48.906;9.140;2023-04-15T00:25:39;976.44;;;14.54;40.15
45071;BME280;30836;48.906;9.140;2023-04-15T00:26:40;976.46;;;14.50;40.23
45071;BME280;30836;48.906;9.140;2023-04-15T00:27:40;976.42;;;14.47;40.21
45071;BME280;30836;48.906;9.140;2023-04-15T00:28:41;976.42;;;14.47;40.22
45071;BME280;30836;48.906;9.140;2023-04-15T00:29:41;976.40;;;14.46;40.26
45071;BME280;30836;48.906;9.140;2023-04-15T00:30:42;976.42;;;14.45;40.26
45071;BME280;30836;48.906;9.140;2023-04-15T00:31:42;976.42;;;14.42;40.32
45071;BME280;30836;48.906;9.140;2023-04-15T00:32:43;976.44;;;14.40;40.31
45071;BME280;30836;48.906;9.140;2023-04-15T00:33:43;976.42;;;14.37;40.31
45071;BME280;30836;48.906;9.140;2023-04-15T00:34:44;976.42;;;14.35;40.37
45071;BME280;30836;48.906;9.140;2023-04-15T00:35:44;976.40;;;14.34;40.43
45071;BME280;30836;48.906;9.140;2023-04-15T00:36:45;976.40;;;14.33;40.41
45071;BME280;30836;48.906;9.140;2023-04-15T00:37:45;976.40;;;14.32;40.43
45071;BME280;30836;48.906;9.140;2023-04-15T00:38:45;976.38;;;14.32;40.40
45071;BME280;30836;48.906;9.140;2023-04-15T00:39:46;976.38;;;14.31;40.42
45071;BME280;30836;48.906;9.140;2023-04-15T00:40:46;976.36;;;14.31;40.47
45071;BME280;30836;48.906;9.140;2023-04-15T00:41:47;976.36;;;14.30;40.47
45071;BME280;30836;48.906;9.140;2023-04-15T00:42:48;976.36;;;14.30;40.42
45071;BME280;30836;48.906;9.140;2023-04-15T00:43:48;976.36;;;14.29;40.46
45071;BME280;30836;48.906;9.140;2023-04-15T00:44:49;976.38;;;14.28;40.53
45071;BME280;30836;48.906;9.140;2023-04-15T00:45:50;976.38;;;14.26;40.55
45071;BME280;30836;48.906;9.140;2023-04-15T00:46:52;976.36;;;14.25;40.52
45071;BME280;30836;48.906;9.140;2023-04-15T00:47:53;976.36;;;14.25;40.45
45071;BME280;30836;48.906;9.140;2023-04-15T00:48:53;976.34;;;14.24;40.42
45071;BME280;30836;48.906;9.140;2023-04-15T00:49:54;976.34;;;14.23;40.48
45071;BME280;30836;48.906;9.140;2023-04-15T00:50:54;976.36;;;14.23;40.47
45071;BME280;30836;48.906;9.140;2023-04-15T00:51:55;976.34;;;14.22;40.53
45071;BME280;30836;48.906;9.140;2023-04-15T00:52:55;976.36;;;14.22;40.59
45071;BME280;30836;48.906;9.140;2023-04-15T00:53:56;976.36;;;14.21;40.78
45071;BME280;30836;48.906;9.140;2023-04-15T00:54:56;976.34;;;14.20;40.83
45071;BME280;30836;48.906;9.140;2023-04-15T00:55:57;976.32;;;14.19;40.85
45071;BME280;30836;48.906;9.140;2023-04-15T00:56:57;976.34;;;14.18;40.92
45071;BME280;30836;48.906;9.140;2023-04-15T00:57:08;976.36;;;14.14;40.94
45071;BME280;30836;48.906;9.140;2023-04-15T00:58:08;976.36;;;14.15;40.92
45071;BME280;30836;48.906;9.140;2023-04-15T00:59:09;976.36;;;14.15;40.90
45071;BME280;30836;48.906;9.140;2023-04-15T01:00:09;976.40;;;14.13;40.90
45071;BME280;30836;48.906;9.140;2023-04-15T01:01:10;976.40;;;14.13;40.77
45071;BME280;30836;48.906;9.140;2023-04-15T01:02:11;976.44;;;14.19;40.40
45071;BME280;30836;48.906;9.140;2023-04-15T01:03:12;976.44;;;14.25;40.29
45071;BME280;30836;48.906;9.140;2023-04-15T01:04:12;976.44;;;14.25;40.46
45071;BME280;30836;48.906;9.140;2023-04-15T01:05:13;976.46;;;14.21;40.54
45071;BME280;30836;48.906;9.140;2023-04-15T01:06:13;976.46;;;14.18;40.56
45071;BME280;30836;48.906;9.140;2023-04-15T01:07:14;976.50;;;14.15;40.59
45071;BME280;30836;48.906;9.140;2023-04-15T01:08:15;976.52;;;14.13;40.58
45071;BME280;30836;48.906;9.140;2023-04-15T01:09:16;976.52;;;14.10;40.60
45071;BME280;30836;48.906;9.140;2023-04-15T01:10:17;976.50;;;14.07;40.53
45071;BME280;30836;48.906;9.140;2023-04-15T01:11:17;976.52;;;14.05;40.50
45071;BME280;30836;48.906;9.140;2023-04-15T01:12:18;976.50;;;14.02;40.56
45071;BME280;30836;48.906;9.140;2023-04-15T01:13:19;976.50;;;13.99;40.63
45071;BME280;30836;48.906;9.140;2023-04-15T01:14:20;976.50;;;13.96;40.79
45071;BME280;30836;48.906;9.140;2023-04-15T01:15:20;976.50;;;13.92;40.92
45071;BME280;30836;48.906;9.140;2023-04-15T01:16:20;976.52;;;13.89;41.01
45071;BME280;30836;48.906;9.140;2023-04-15T01:17:21;976.50;;;13.88;40.98
45071;BME280;30836;48.906;9.140;2023-04-15T01:18:23;976.50;;;13.90;40.86
45071;BME280;30836;48.906;9.140;2023-04-15T01:19:24;976.50;;;13.95;40.66
45071;BME280;30836;48.906;9.140;2023-04-15T01:20:24;976.52;;;13.97;40.65
45071;BME280;30836;48.906;9.140;2023-04-15T01:21:25;976.52;;;13.97;40.74
45071;BME280;30836;48.906;9.140;2023-04-15T01:22:26;976.54;;;13.95;40.87
45071;BME280;30836;48.906;9.140;2023-04-15T01:23:27;976.56;;;13.94;40.93
45071;BME280;30836;48.906;9.140;2023-04-15T01:24:27;976.56;;;13.93;41.01
45071;BME280;30836;48.906;9.140;2023-04-15T01:25:32;976.56;;;13.90;41.07
45071;BME280;30836;48.906;9.140;2023-04-15T01:26:34;976.54;;;13.90;41.03
45071;BME280;30836;48.906;9.140;2023-04-15T01:27:39;976.54;;;13.98;40.65
45071;BME280;30836;48.906;9.140;2023-04-15T01:28:40;976.54;;;14.08;40.37
45071;BME280;30836;48.906;9.140;2023-04-15T01:29:41;976.54;;;14.10;40.38
45071;BME280;30836;48.906;9.140;2023-04-15T01:30:41;976.50;;;14.07;40.42
45071;BME280;30836;48.906;9.140;2023-04-15T01:32:51;976.50;;;13.97;40.49
45071;BME280;30836;48.906;9.140;2023-04-15T01:33:52;976.44;;;13.91;40.52
45071;BME280;30836;48.906;9.140;2023-04-15T01:34:53;976.46;;;13.85;40.56
45071;BME280;30836;48.906;9.140;2023-04-15T01:35:53;976.44;;;13.80;40.57
45071;BME280;30836;48.906;9.140;2023-04-15T01:36:53;976.44;;;13.76;40.59
45071;BME280;30836;48.906;9.140;2023-04-15T01:37:54;976.44;;;13.73;40.69
45071;BME280;30836;48.906;9.140;2023-04-15T01:39:02;976.42;;;13.73;40.68
45071;BME280;30836;48.906;9.140;2023-04-15T01:40:03;976.42;;;13.81;40.53
45071;BME280;30836;48.906;9.140;2023-04-15T01:41:04;976.42;;;13.95;40.30
45071;BME280;30836;48.906;9.140;2023-04-15T01:42:04;976.40;;;14.10;40.01
45071;BME280;30836;48.906;9.140;2023-04-15T01:43:05;976.42;;;14.23;39.67
45071;BME280;30836;48.906;9.140;2023-04-15T01:44:05;976.44;;;14.33;39.57
45071;BME280;30836;48.906;9.140;2023-04-15T01:45:06;976.40;;;14.41;39.44
45071;BME280;30836;48.906;9.140;2023-04-15T01:46:06;976.44;;;14.48;39.26
45071;BME280;30836;48.906;9.140;2023-04-15T01:47:07;976.44;;;14.55;39.13
45071;BME280;30836;48.906;9.140;2023-04-15T01:48:07;976.44;;;14.60;39.13
45071;BME280;30836;48.906;9.140;2023-04-15T01:49:08;976.44;;;14.64;39.10
45071;BME280;30836;48.906;9.140;2023-04-15T01:50:08;976.44;;;14.68;39.05
45071;BME280;30836;48.906;9.140;2023-04-15T01:51:09;976.44;;;14.72;38.85
45071;BME280;30836;48.906;9.140;2023-04-15T01:52:09;976.46;;;14.74;38.72
45071;BME280;30836;48.906;9.140;2023-04-15T01:53:10;976.44;;;14.76;38.55
45071;BME280;30836;48.906;9.140;2023-04-15T01:54:10;976.44;;;14.78;38.48
45071;BME280;30836;48.906;9.140;2023-04-15T01:55:11;976.46;;;14.80;38.49
45071;BME280;30836;48.906;9.140;2023-04-15T01:56:11;976.44;;;14.81;38.54
45071;BME280;30836;48.906;9.140;2023-04-15T01:57:12;976.44;;;14.81;38.63
45071;BME280;30836;48.906;9.140;2023-04-15T01:58:12;976.42;;;14.82;38.60
45071;BME280;30836;48.906;9.140;2023-04-15T01:59:13;976.42;;;14.81;38.30
45071;BME280;30836;48.906;9.140;2023-04-15T02:00:13;976.40;;;14.80;38.22
45071;BME280;30836;48.906;9.140;2023-04-15T02:01:14;976.40;;;14.80;38.11
45071;BME280;30836;48.906;9.140;2023-04-15T02:02:14;976.40;;;14.79;38.15
45071;BME280;30836;48.906;9.140;2023-04-15T02:03:15;976.40;;;14.79;38.26
45071;BME280;30836;48.906;9.140;2023-04-15T02:04:15;976.38;;;14.79;38.35
45071;BME280;30836;48.906;9.140;2023-04-15T02:05:16;976.38;;;14.80;38.42
45071;BME280;30836;48.906;9.140;2023-04-15T02:06:16;976.40;;;14.80;38.44
45071;BME280;30836;48.906;9.140;2023-04-15T02:07:17;976.40;;;14.81;38.47
45071;BME280;30836;48.906;9.140;2023-04-15T02:08:17;976.38;;;14.80;38.49
45071;BME280;30836;48.906;9.140;2023-04-15T02:09:17;976.38;;;14.80;38.46
45071;BME280;30836;48.906;9.140;2023-04-15T02:10:18;976.34;;;14.79;38.54
45071;BME280;30836;48.906;9.140;2023-04-15T02:11:18;976.36;;;14.78;38.60
45071;BME280;30836;48.906;9.140;2023-04-15T02:12:19;976.38;;;14.76;38.63
45071;BME280;30836;48.906;9.140;2023-04-15T02:13:19;976.36;;;14.73;38.77
45071;BME280;30836;48.906;9.140;2023-04-15T02:14:20;976.34;;;14.65;38.90
45071;BME280;30836;48.906;9.140;2023-04-15T02:15:20;976.36;;;14.57;39.03
45071;BME280;30836;48.906;9.140;2023-04-15T02:16:21;976.36;;;14.52;39.06
45071;BME280;30836;48.906;9.140;2023-04-15T02:17:21;976.34;;;14.48;39.15
45071;BME280;30836;48.906;9.140;2023-04-15T02:18:22;976.36;;;14.42;39.28
45071;BME280;30836;48.906;9.140;2023-04-15T02:19:22;976.32;;;14.34;39.50
45071;BME280;30836;48.906;9.140;2023-04-15T02:20:23;976.30;;;14.26;39.54
45071;BME280;30836;48.906;9.140;2023-04-15T02:21:24;976.28;;;14.20;39.66
45071;BME280;30836;48.906;9.140;2023-04-15T02:22:25;976.27;;;14.17;39.59
45071;BME280;30836;48.906;9.140;2023-04-15T02:23:26;976.28;;;14.15;39.62
45071;BME280;30836;48.906;9.140;2023-04-15T02:24:27;976.28;;;14.14;39.59
45071;BME280;30836;48.906;9.140;2023-04-15T02:25:30;976.28;;;14.12;39.61
45071;BME280;30836;48.906;9.140;2023-04-15T02:26:30;976.27;;;14.09;39.71
45071;BME280;30836;48.906;9.140;2023-04-15T02:27:31;976.27;;;14.03;39.91
45071;BME280;30836;48.906;9.140;2023-04-15T02:28:31;976.27;;;13.98;39.97
45071;BME280;30836;48.906;9.140;2023-04-15T02:29:31;976.25;;;13.93;40.19
45071;BME280;30836;48.906;9.140;2023-04-15T02:30:32;976.25;;;13.90;40.16
45071;BME280;30836;48.906;9.140;2023-04-15T02:31:33;976.25;;;13.90;40.27
45071;BME280;30836;48.906;9.140;2023-04-15T02:32:33;976.25;;;13.91;40.15
45071;BME280;30836;48.906;9.140;2023-04-15T02:33:34;976.23;;;13.96;39.97
45071;BME280;30836;48.906;9.140;2023-04-15T02:34:34;976.21;;;14.01;39.88
45071;BME280;30836;48.906;9.140;2023-04-15T02:35:35;976.23;;;14.05;39.81
45071;BME280;30836;48.906;9.140;2023-04-15T02:36:35;976.23;;;14.10;39.80
45071;BME280;30836;48.906;9.140;2023-04-15T02:37:36;976.23;;;14.13;39.68
45071;BME280;30836;48.906;9.140;2023-04-15T02:38:37;976.21;;;14.17;39.57
45071;BME280;30836;48.906;9.140;2023-04-15T02:39:37;976.25;;;14.22;39.40
45071;BME280;30836;48.906;9.140;2023-04-15T02:40:38;976.25;;;14.27;39.16
45071;BME280;30836;48.906;9.140;2023-04-15T02:41:38;976.25;;;14.32;39.01
45071;BME280;30836;48.906;9.140;2023-04-15T02:42:39;976.25;;;14.37;39.03
45071;BME280;30836;48.906;9.140;2023-04-15T02:43:40;976.25;;;14.41;38.90
45071;BME280;30836;48.906;9.140;2023-04-15T02:44:40;976.25;;;14.45;38.81
45071;BME280;30836;48.906;9.140;2023-04-15T02:45:41;976.27;;;14.48;38.71
45071;BME280;30836;48.906;9.140;2023-04-15T02:46:41;976.25;;;14.50;38.37
45071;BME280;30836;48.906;9.140;2023-04-15T02:47:42;976.27;;;14.52;38.36
45071;BME280;30836;48.906;9.140;2023-04-15T02:48:42;976.27;;;14.52;38.36
45071;BME280;30836;48.906;9.140;2023-04-15T02:49:42;976.27;;;14.54;38.37
45071;BME280;30836;48.906;9.140;2023-04-15T02:50:43;976.27;;;14.56;38.32
45071;BME280;30836;48.906;9.140;2023-04-15T02:51:44;976.28;;;14.57;38.37
45071;BME280;30836;48.906;9.140;2023-04-15T02:52:45;976.30;;;14.59;38.38
45071;BME280;30836;48.906;9.140;2023-04-15T02:53:45;976.30;;;14.59;38.26
45071;BME280;30836;48.906;9.140;2023-04-15T02:54:47;976.28;;;14.59;38.15
45071;BME280;30836;48.906;9.140;2023-04-15T02:55:47;976.30;;;14.58;38.12
45071;BME280;30836;48.906;9.140;2023-04-15T02:56:47;976.30;;;14.57;38.17
45071;BME280;30836;48.906;9.140;2023-04-15T02:57:48;976.28;;;14.55;38.20
45071;BME280;30836;48.906;9.140;2023-04-15T02:58:48;976.30;;;14.54;38.39
45071;BME280;30836;48.906;9.140;2023-04-15T02:59:49;976.32;;;14.52;38.46
45071;BME280;30836;48.906;9.140;2023-04-15T03:00:49;976.30;;;14.51;38.47
45071;BME280;30836;48.906;9.140;2023-04-15T03:01:49;976.36;;;14.50;38.46
45071;BME280;30836;48.906;9.140;2023-04-15T03:02:50;976.36;;;14.49;38.52
45071;BME280;30836;48.906;9.140;2023-04-15T03:03:51;976.34;;;14.46;38.64
45071;BME280;30836;48.906;9.140;2023-04-15T03:04:51;976.34;;;14.43;38.68
45071;BME280;30836;48.906;9.140;2023-04-15T03:05:52;976.34;;;14.42;38.68
45071;BME280;30836;48.906;9.140;2023-04-15T03:06:52;976.34;;;14.42;38.76
45071;BME280;30836;48.906;9.140;2023-04-15T03:07:53;976.34;;;14.41;38.86
45071;BME280;30836;48.906;9.140;2023-04-15T03:08:53;976.32;;;14.40;38.92
45071;BME280;30836;48.906;9.140;2023-04-15T03:09:53;976.32;;;14.38;38.98
45071;BME280;30836;48.906;9.140;2023-04-15T03:10:54;976.30;;;14.36;39.13
45071;BME280;30836;48.906;9.140;2023-04-15T03:11:54;976.27;;;14.35;39.16
45071;BME280;30836;48.906;9.140;2023-04-15T03:12:55;976.28;;;14.33;39.17
45071;BME280;30836;48.906;9.140;2023-04-15T03:13:55;976.28;;;14.33;39.24
45071;BME280;30836;48.906;9.140;2023-04-15T03:14:56;976.27;;;14.32;39.30
45071;BME280;30836;48.906;9.140;2023-04-15T03:15:56;976.28;;;14.31;39.40
45071;BME280;30836;48.906;9.140;2023-04-15T03:16:57;976.27;;;14.31;39.49
45071;BME280;30836;48.906;9.140;2023-04-15T03:17:57;976.25;;;14.31;39.59
45071;BME280;30836;48.906;9.140;2023-04-15T03:18:58;976.25;;;14.31;39.51
45071;BME280;30836;48.906;9.140;2023-04-15T03:20:00;976.23;;;14.31;39.53
45071;BME280;30836;48.906;9.140;2023-04-15T03:21:01;976.23;;;14.31;39.49
45071;BME280;30836;48.906;9.140;2023-04-15T03:22:02;976.21;;;14.31;39.43
45071;BME280;30836;48.906;9.140;2023-04-15T03:23:02;976.21;;;14.31;39.40
45071;BME280;30836;48.906;9.140;2023-04-15T03:24:03;976.21;;;14.31;39.37
45071;BME280;30836;48.906;9.140;2023-04-15T03:25:03;976.21;;;14.30;39.32
45071;BME280;30836;48.906;9.140;2023-04-15T03:26:04;976.21;;;14.29;39.33
45071;BME280;30836;48.906;9.140;2023-04-15T03:27:04;976.23;;;14.28;39.36
45071;BME280;30836;48.906;9.140;2023-04-15T03:28:05;976.25;;;14.27;39.36
45071;BME280;30836;48.906;9.140;2023-04-15T03:29:05;976.23;;;14.26;39.44
45071;BME280;30836;48.906;9.140;2023-04-15T03:30:06;976.25;;;14.26;39.49
45071;BME280;30836;48.906;9.140;2023-04-15T03:31:07;976.23;;;14.25;39.50
45071;BME280;30836;48.906;9.140;2023-04-15T03:32:07;976.25;;;14.23;39.42
45071;BME280;30836;48.906;9.140;2023-04-15T03:33:08;976.25;;;14.22;39.31
45071;BME280;30836;48.906;9.140;2023-04-15T03:34:08;976.25;;;14.21;39.22
45071;BME280;30836;48.906;9.140;2023-04-15T03:35:08;976.21;;;14.20;39.14
45071;BME280;30836;48.906;9.140;2023-04-15T03:36:09;976.21;;;14.19;39.07
45071;BME280;30836;48.906;9.140;2023-04-15T03:37:09;976.21;;;14.17;38.98
45071;BME280;30836;48.906;9.140;2023-04-15T03:38:10;976.23;;;14.15;38.98
45071;BME280;30836;48.906;9.140;2023-04-15T03:39:10;976.25;;;14.13;38.99
45071;BME280;30836;48.906;9.140;2023-04-15T03:40:11;976.27;;;14.12;38.97
45071;BME280;30836;48.906;9.140;2023-04-15T03:41:11;976.27;;;14.10;38.99
45071;BME280;30836;48.906;9.140;2023-04-15T03:42:12;976.25;;;14.09;38.91
45071;BME280;30836;48.906;9.140;2023-04-15T03:43:13;976.25;;;14.09;38.88
45071;BME280;30836;48.906;9.140;2023-04-15T03:44:13;976.27;;;14.08;39.14
45071;BME280;30836;48.906;9.140;2023-04-15T03:45:14;976.25;;;14.07;39.67
45071;BME280;30836;48.906;9.140;2023-04-15T03:46:14;976.23;;;14.05;39.85
45071;BME280;30836;48.906;9.140;2023-04-15T03:47:14;976.23;;;14.03;40.12
45071;BME280;30836;48.906;9.140;2023-04-15T03:48:15;976.23;;;14.00;40.16
45071;BME280;30836;48.906;9.140;2023-04-15T03:49:15;976.25;;;13.98;40.10
45071;BME280;30836;48.906;9.140;2023-04-15T03:50:16;976.23;;;13.93;40.18
45071;BME280;30836;48.906;9.140;2023-04-15T03:51:16;976.25;;;13.80;40.51
45071;BME280;30836;48.906;9.140;2023-04-15T03:52:17;976.23;;;13.63;40.90
45071;BME280;30836;48.906;9.140;2023-04-15T03:53:17;976.25;;;13.46;41.22
45071;BME280;30836;48.906;9.140;2023-04-15T03:54:18;976.27;;;13.33;41.47
45071;BME280;30836;48.906;9.140;2023-04-15T03:55:18;976.25;;;13.23;41.61
45071;BME280;30836;48.906;9.140;2023-04-15T03:56:18;976.27;;;13.16;41.65
45071;BME280;30836;48.906;9.140;2023-04-15T03:57:19;976.27;;;13.09;41.76
45071;BME280;30836;48.906;9.140;2023-04-15T03:58:19;976.28;;;13.04;41.85
45071;BME280;30836;48.906;9.140;2023-04-15T03:59:20;976.23;;;13.01;41.92
45071;BME280;30836;48.906;9.140;2023-04-15T04:00:20;976.25;;;12.98;42.00
45071;BME280;30836;48.906;9.140;2023-04-15T04:01:21;976.25;;;12.96;42.10
45071;BME280;30836;48.906;9.140;2023-04-15T04:02:22;976.27;;;12.93;42.17
45071;BME280;30836;48.906;9.140;2023-04-15T04:03:22;976.28;;;12.91;42.25
45071;BME280;30836;48.906;9.140;2023-04-15T04:04:22;976.27;;;12.89;42.31
45071;BME280;30836;48.906;9.140;2023-04-15T04:05:23;976.25;;;12.86;42.29
45071;BME280;30836;48.906;9.140;2023-04-15T04:06:23;976.27;;;12.85;42.25
45071;BME280;30836;48.906;9.140;2023-04-15T04:07:24;976.27;;;12.84;42.21
45071;BME280;30836;48.906;9.140;2023-04-15T04:08:24;976.27;;;12.83;42.25
45071;BME280;30836;48.906;9.140;2023-04-15T04:09:25;976.28;;;12.82;42.28
45071;BME280;30836;48.906;9.140;2023-04-15T04:10:26;976.30;;;12.81;42.28
45071;BME280;30836;48.906;9.140;2023-04-15T04:11:26;976.30;;;12.80;42.31
45071;BME280;30836;48.906;9.140;2023-04-15T04:12:26;976.32;;;12.79;42.19
45071;BME280;30836;48.906;9.140;2023-04-15T04:13:27;976.36;;;12.77;42.21
45071;BME280;30836;48.906;9.140;2023-04-15T04:14:27;976.36;;;12.76;42.24
45071;BME280;30836;48.906;9.140;2023-04-15T04:15:28;976.36;;;12.75;42.34
45071;BME280;30836;48.906;9.140;2023-04-15T04:16:28;976.38;;;12.73;42.64
45071;BME280;30836;48.906;9.140;2023-04-15T04:17:29;976.38;;;12.70;42.69
45071;BME280;30836;48.906;9.140;2023-04-15T04:18:30;976.38;;;12.69;42.73
45071;BME280;30836;48.906;9.140;2023-04-15T04:19:31;976.38;;;12.67;42.85
45071;BME280;30836;48.906;9.140;2023-04-15T04:20:32;976.38;;;12.65;42.99
45071;BME280;30836;48.906;9.140;2023-04-15T04:21:33;976.38;;;12.64;43.10
45071;BME280;30836;48.906;9.140;2023-04-15T04:23:40;976.38;;;12.57;43.39
45071;BME280;30836;48.906;9.140;2023-04-15T04:24:40;976.40;;;12.54;43.51
45071;BME280;30836;48.906;9.140;2023-04-15T04:25:41;976.42;;;12.53;43.53
45071;BME280;30836;48.906;9.140;2023-04-15T04:26:41;976.42;;;12.52;43.57
45071;BME280;30836;48.906;9.140;2023-04-15T04:27:42;976.42;;;12.52;43.61
45071;BME280;30836;48.906;9.140;2023-04-15T04:28:42;976.44;;;12.51;43.65
45071;BME280;30836;48.906;9.140;2023-04-15T04:29:42;976.42;;;12.51;43.63
45071;BME280;30836;48.906;9.140;2023-04-15T04:30:43;976.42;;;12.51;43.67
45071;BME280;30836;48.906;9.140;2023-04-15T04:31:44;976.44;;;12.52;43.58
45071;BME280;30836;48.906;9.140;2023-04-15T04:32:44;976.44;;;12.52;43.51
45071;BME280;30836;48.906;9.140;2023-04-15T04:33:45;976.46;;;12.52;43.55
45071;BME280;30836;48.906;9.140;2023-04-15T04:34:45;976.46;;;12.51;43.54
45071;BME280;30836;48.906;9.140;2023-04-15T04:35:46;976.46;;;12.50;43.63
45071;BME280;30836;48.906;9.140;2023-04-15T04:36:46;976.46;;;12.49;43.65
45071;BME280;30836;48.906;9.140;2023-04-15T04:37:46;976.48;;;12.50;43.65
45071;BME280;30836;48.906;9.140;2023-04-15T04:38:47;976.46;;;12.51;43.56
45071;BME280;30836;48.906;9.140;2023-04-15T04:39:47;976.50;;;12.52;43.56
45071;BME280;30836;48.906;9.140;2023-04-15T04:40:48;976.50;;;12.52;43.59
45071;BME280;30836;48.906;9.140;2023-04-15T04:41:48;976.50;;;12.53;43.57
45071;BME280;30836;48.906;9.140;2023-04-15T04:42:49;976.50;;;12.54;43.55
45071;BME280;30836;48.906;9.140;2023-04-15T04:43:50;976.48;;;12.55;43.60
45071;BME280;30836;48.906;9.140;2023-04-15T04:44:50;976.50;;;12.54;43.74
45071;BME280;30836;48.906;9.140;2023-04-15T04:45:50;976.52;;;12.49;44.05
45071;BME280;30836;48.906;9.140;2023-04-15T04:46:51;976.48;;;12.45;44.00
45071;BME280;30836;48.906;9.140;2023-04-15T04:47:51;976.48;;;12.41;43.96
45071;BME280;30836;48.906;9.140;2023-04-15T04:48:52;976.48;;;12.38;44.05
45071;BME280;30836;48.906;9.140;2023-04-15T04:49:52;976.50;;;12.36;44.03
45071;BME280;30836;48.906;9.140;2023-04-15T04:50:53;976.46;;;12.33;44.14
45071;BME280;30836;48.906;9.140;2023-04-15T04:51:53;976.48;;;12.29;44.26
45071;BME280;30836;48.906;9.140;2023-04-15T04:52:54;976.48;;;12.26;44.45
45071;BME280;30836;48.906;9.140;2023-04-15T04:53:54;976.48;;;12.23;44.47
45071;BME280;30836;48.906;9.140;2023-04-15T04:54:55;976.50;;;12.22;44.53
45071;BME280;30836;48.906;9.140;2023-04-15T04:55:55;976.50;;;12.23;44.43
45071;BME280;30836;48.906;9.140;2023-04-15T04:56:55;976.52;;;12.22;44.52
45071;BME280;30836;48.906;9.140;2023-04-15T04:57:56;976.50;;;12.18;44.66
45071;BME280;30836;48.906;9.140;2023-04-15T04:58:56;976.50;;;12.18;44.63
45071;BME280;30836;48.906;9.140;2023-04-15T04:59:57;976.52;;;12.17;44.68
45071;BME280;30836;48.906;9.140;2023-04-15T05:00:57;976.54;;;12.13;44.72
45071;BME280;30836;48.906;9.140;2023-04-15T05:01:58;976.56;;;12.11;44.82
45071;BME280;30836;48.906;9.140;2023-04-15T05:02:58;976.56;;;12.10;44.93
45071;BME280;30836;48.906;9.140;2023-04-15T05:03:59;976.56;;;12.08;45.06
45071;BME280;30836;48.906;9.140;2023-04-15T05:04:09;976.54;;;12.03;45.05
45071;BME280;30836;48.906;9.140;2023-04-15T05:05:09;976.56;;;12.05;44.94
45071;BME280;30836;48.906;9.140;2023-04-15T05:06:10;976.56;;;12.08;44.91
45071;BME280;30836;48.906;9.140;2023-04-15T05:07:11;976.58;;;12.08;44.95
45071;BME280;30836;48.906;9.140;2023-04-15T05:08:11;976.62;;;12.07;45.00
45071;BME280;30836;48.906;9.140;2023-04-15T05:09:12;976.60;;;12.06;45.10
45071;BME280;30836;48.906;9.140;2023-04-15T05:10:12;976.60;;;12.07;45.07
45071;BME280;30836;48.906;9.140;2023-04-15T05:11:13;976.62;;;12.08;45.11
45071;BME280;30836;48.906;9.140;2023-04-15T05:12:13;976.60;;;12.09;45.15
45071;BME280;30836;48.906;9.140;2023-04-15T05:13:14;976.62;;;12.12;45.03
45071;BME280;30836;48.906;9.140;2023-04-15T05:14:14;976.62;;;12.14;45.00
45071;BME280;30836;48.906;9.140;2023-04-15T05:15:15;976.62;;;12.15;44.92
45071;BME280;30836;48.906;9.140;2023-04-15T05:16:15;976.60;;;12.16;44.86
45071;BME280;30836;48.906;9.140;2023-04-15T05:17:15;976.62;;;12.16;44.79
45071;BME280;30836;48.906;9.140;2023-04-15T05:18:16;976.62;;;12.15;44.69
45071;BME280;30836;48.906;9.140;2023-04-15T05:19:16;976.62;;;12.15;44.66
45071;BME280;30836;48.906;9.140;2023-04-15T05:20:17;976.58;;;12.13;44.74
45071;BME280;30836;48.906;9.140;2023-04-15T05:21:17;976.58;;;12.11;44.75
45071;BME280;30836;48.906;9.140;2023-04-15T05:22:18;976.58;;;12.11;44.77
45071;BME280;30836;48.906;9.140;2023-04-15T05:23:19;976.56;;;12.14;44.73
45071;BME280;30836;48.906;9.140;2023-04-15T05:24:19;976.54;;;12.16;44.59
45071;BME280;30836;48.906;9.140;2023-04-15T05:25:19;976.54;;;12.18;44.59
45071;BME280;30836;48.906;9.140;2023-04-15T05:25:29;976.54;;;12.17;44.58
45071;BME280;30836;48.906;9.140;2023-04-15T05:26:30;976.56;;;12.19;44.55
45071;BME280;30836;48.906;9.140;2023-04-15T05:27:30;976.54;;;12.23;44.46
45071;BME280;30836;48.906;9.140;2023-04-15T05:28:31;976.54;;;12.25;44.48
45071;BME280;30836;48.906;9.140;2023-04-15T05:29:31;976.56;;;12.25;44.48